Time;durP1;ratioP1;P1;durP2;ratioP2;P2;SDS_P1;SDS_P2;PMS_P1;PMS_P2;Temp;Humidity;BMP_temperature;BMP_pressure;BME280_temperature;BME280_humidity;BME280_pressure;Samples;Min_cycle;Max_cycle;Signal;HPM_P1;HPM_P2
2022/10/15 00:01:38;;;;;;;110.07;41.60;;;;;;;12.68;100.00;100650.38;5009914;28;20030;-41
2022/10/15 00:04:03;;;;;;;103.18;38.53;;;;;;;12.66;100.00;100655.13;5009729;28;20034;-39
2022/10/15 00:06:28;;;;;;;104.28;40.88;;;;;;;12.61;100.00;100655.75;5009621;28;20489;-39
2022/10/15 00:08:54;;;;;;;107.93;40.40;;;;;;;12.61;100.00;100649.50;5009329;28;20159;-40
2022/10/15 00:11:21;;;;;;;114.95;39.55;;;;;;;12.61;100.00;100649.50;5009926;28;20022;-40
2022/10/15 00:13:48;;;;;;;101.80;40.15;;;;;;;12.60;100.00;100648.66;5009657;28;20050;-40
2022/10/15 00:16:15;;;;;;;109.97;39.67;;;;;;;12.61;100.00;100644.09;5009158;28;20080;-39
2022/10/15 00:18:41;;;;;;;98.03;38.17;;;;;;;12.63;100.00;100650.13;4998187;28;20037;-41
2022/10/15 00:21:08;;;;;;;95.38;37.75;;;;;;;12.63;100.00;100645.56;5008116;28;20029;-39
2022/10/15 00:23:34;;;;;;;91.25;37.15;;;;;;;12.68;100.00;100650.38;5009363;28;20515;-39
2022/10/15 00:26:01;;;;;;;101.28;37.70;;;;;;;12.70;100.00;100648.31;4991350;28;20022;-40
2022/10/15 00:28:26;;;;;;;93.97;37.23;;;;;;;12.71;100.00;100647.25;5009575;28;20022;-40
2022/10/15 00:30:58;;;;;;;100.72;38.97;;;;;;;12.73;100.00;100640.63;5009412;28;20512;-39
2022/10/15 00:33:24;;;;;;;98.85;38.47;;;;;;;12.79;100.00;100643.56;5009662;28;20057;-39
2022/10/15 00:35:57;;;;;;;101.07;39.28;;;;;;;12.82;100.00;100641.31;5013125;28;20073;-41
2022/10/15 00:38:23;;;;;;;94.72;36.78;;;;;;;12.87;100.00;100635.28;5014307;28;20030;-40
2022/10/15 00:40:48;;;;;;;95.63;39.67;;;;;;;12.88;100.00;100637.78;5013787;28;20392;-40
2022/10/15 00:43:13;;;;;;;101.43;38.20;;;;;;;12.90;100.00;100633.03;5013393;28;20561;-39
2022/10/15 00:45:39;;;;;;;92.50;37.45;;;;;;;12.91;100.00;100634.69;5012798;28;20517;-40
2022/10/15 00:48:05;;;;;;;95.50;39.35;;;;;;;12.92;100.00;100630.94;4995421;28;20382;-39
2022/10/15 00:50:31;;;;;;;94.93;38.38;;;;;;;12.94;100.00;100639.66;4994552;28;20125;-39
2022/10/15 00:53:02;;;;;;;93.65;37.13;;;;;;;12.95;100.00;100629.69;5012723;28;20133;-40
2022/10/15 00:55:27;;;;;;;93.85;37.63;;;;;;;12.94;100.00;100623.47;4992346;28;20042;-40
2022/10/15 00:57:54;;;;;;;111.50;39.80;;;;;;;12.94;100.00;100642.38;5007629;28;20030;-39
2022/10/15 01:00:20;;;;;;;94.70;39.88;;;;;;;12.93;100.00;100635.31;5012263;28;20026;-40
2022/10/15 01:02:46;;;;;;;100.25;39.83;;;;;;;12.93;100.00;100637.19;5012815;28;20351;-39
2022/10/15 01:05:12;;;;;;;101.88;39.92;;;;;;;12.91;100.00;100636.56;5012396;28;20293;-40
2022/10/15 01:07:38;;;;;;;99.10;38.55;;;;;;;12.91;100.00;100631.97;5011249;28;20049;-40
2022/10/15 01:10:05;;;;;;;98.05;38.60;;;;;;;12.93;100.00;100634.50;5011922;28;20113;-40
2022/10/15 01:13:08;;;;;;;99.38;39.95;;;;;;;12.94;100.00;100628.03;4994313;28;20052;-40
2022/10/15 01:16:07;;;;;;;107.03;39.55;;;;;;;12.95;100.00;100629.69;5012667;28;20069;-39
2022/10/15 01:18:39;;;;;;;105.50;42.97;;;;;;;12.92;100.00;100622.81;5011714;28;20044;-40
2022/10/15 01:21:28;;;;;;;104.15;40.53;;;;;;;12.93;100.00;100613.72;5004362;28;20022;-40
2022/10/15 01:24:15;;;;;;;121.53;43.42;;;;;;;12.93;100.00;100611.00;5011984;28;20144;-39
2022/10/15 01:26:52;;;;;;;113.13;42.58;;;;;;;12.92;100.00;100614.72;4978430;28;20026;-42
2022/10/15 01:29:39;;;;;;;116.63;44.50;;;;;;;12.89;100.00;100609.72;4994485;28;20030;-40
2022/10/15 01:32:16;;;;;;;107.35;45.35;;;;;;;12.85;100.00;100607.63;5012034;28;20072;-40
2022/10/15 01:35:23;;;;;;;109.38;44.47;;;;;;;12.82;100.00;100606.19;4994649;28;20029;-39
2022/10/15 01:37:58;;;;;;;116.85;46.60;;;;;;;12.77;100.00;100608.66;4973133;28;20050;-39
2022/10/15 01:40:32;;;;;;;123.03;47.38;;;;;;;12.76;100.00;100598.06;5007914;28;20030;-39
2022/10/15 01:43:00;;;;;;;115.55;47.08;;;;;;;12.70;100.00;100599.69;5011586;28;20088;-40
2022/10/15 01:45:39;;;;;;;124.50;49.40;;;;;;;12.68;100.00;100607.16;5009340;28;20044;-40
2022/10/15 01:48:08;;;;;;;126.63;51.72;;;;;;;12.62;100.00;100603.41;4994288;28;20030;-40
2022/10/15 01:50:34;;;;;;;131.90;51.38;;;;;;;12.59;100.00;100597.59;5007216;28;20030;-40
2022/10/15 01:53:01;;;;;;;129.68;50.83;;;;;;;12.57;100.00;100596.94;4993709;28;20084;-40
2022/10/15 01:55:27;;;;;;;131.35;51.58;;;;;;;12.54;100.00;100600.06;4994586;28;20038;-41
2022/10/15 01:57:55;;;;;;;131.20;51.10;;;;;;;12.49;100.00;100592.56;4993839;28;20026;-40
2022/10/15 02:00:21;;;;;;;141.07;54.20;;;;;;;12.46;100.00;100585.69;4994135;28;20361;-41
2022/10/15 02:02:46;;;;;;;137.85;51.83;;;;;;;12.44;100.00;100584.22;5010286;28;20026;-40
2022/10/15 02:05:17;;;;;;;133.43;52.90;;;;;;;12.40;100.00;100580.25;5011628;28;20488;-40
2022/10/15 02:07:53;;;;;;;139.95;54.28;;;;;;;12.38;100.00;100585.03;4983715;28;20047;-41
2022/10/15 02:10:27;;;;;;;147.10;53.90;;;;;;;12.35;100.00;100577.31;4979013;28;20057;-39
2022/10/15 02:12:58;;;;;;;156.60;54.60;;;;;;;12.35;100.00;100582.72;5010259;28;20096;-39
2022/10/15 02:15:26;;;;;;;155.77;55.28;;;;;;;12.33;100.00;100577.53;4991304;28;20093;-40
2022/10/15 02:18:04;;;;;;;148.35;54.45;;;;;;;12.33;100.00;100577.53;5004345;28;20500;-40
2022/10/15 02:21:11;;;;;;;149.45;54.45;;;;;;;12.31;100.00;100571.50;4993775;28;20037;-40
2022/10/15 02:23:39;;;;;;;150.07;54.53;;;;;;;12.29;100.00;100570.84;5009572;28;20242;-39
2022/10/15 02:26:07;;;;;;;148.70;54.05;;;;;;;12.30;100.00;100559.88;4993607;28;20065;-41
2022/10/15 02:28:32;;;;;;;;;;;;;;;12.27;100.00;100562.97;5010739;28;20049;-40
2022/10/15 02:30:58;;;;;;;153.35;56.72;;;;;;;12.27;100.00;100554.06;4976746;28;19963;-40
2022/10/15 02:33:24;;;;;;;160.70;55.55;;;;;;;12.25;100.00;100548.84;5010851;28;20049;-40
2022/10/15 02:35:50;;;;;;;156.98;56.78;;;;;;;12.26;100.00;100549.66;5010916;28;20100;-40
2022/10/15 02:38:18;;;;;;;162.10;56.30;;;;;;;12.23;100.00;100545.50;5010658;28;20396;-40
2022/10/15 02:40:45;;;;;;;178.73;57.30;;;;;;;12.23;100.00;100542.81;5010252;28;20022;-40
2022/10/15 02:43:12;;;;;;;172.30;58.75;;;;;;;12.21;100.00;100541.34;5009208;28;20034;-41
2022/10/15 02:45:38;;;;;;;166.63;56.85;;;;;;;12.19;100.00;100540.69;5010756;28;20026;-40
2022/10/15 02:48:04;;;;;;;160.85;59.05;;;;;;;12.19;100.00;100538.84;5009632;28;20109;-39
2022/10/15 02:50:29;;;;;;;168.27;59.97;;;;;;;12.17;100.00;100545.50;5009355;28;20030;-40
2022/10/15 02:52:54;;;;;;;167.35;57.03;;;;;;;12.17;100.00;100550.88;4992360;28;20473;-40
2022/10/15 02:55:20;;;;;;;187.07;62.80;;;;;;;12.19;100.00;100544.25;5010115;28;20112;-39
2022/10/15 02:57:45;;;;;;;183.73;62.63;;;;;;;12.20;100.00;100539.69;4992173;28;20056;-41
2022/10/15 03:00:11;;;;;;;168.00;58.75;;;;;;;12.21;100.00;100541.34;5008775;28;20542;-39
2022/10/15 03:02:36;;;;;;;162.82;57.03;;;;;;;12.19;100.00;100538.84;5010395;28;20041;-39
2022/10/15 03:05:02;;;;;;;174.95;58.75;;;;;;;12.19;100.00;100538.84;5011092;28;20381;-40
2022/10/15 03:07:27;;;;;;;163.25;58.50;;;;;;;12.16;100.00;100531.13;5008059;28;20327;-40
2022/10/15 03:09:52;;;;;;;173.57;60.13;;;;;;;12.15;100.00;100537.56;5009657;28;20191;-39
2022/10/15 03:12:22;;;;;;;171.27;59.55;;;;;;;12.14;100.00;100530.53;5010013;28;20103;-40
2022/10/15 03:14:47;;;;;;;173.75;59.92;;;;;;;12.15;100.00;100536.75;5010538;28;20120;-39
2022/10/15 03:17:13;;;;;;;177.70;61.25;;;;;;;12.14;100.00;100538.63;5009488;28;20185;-40
2022/10/15 03:19:38;;;;;;;164.77;58.40;;;;;;;12.14;100.00;100532.38;5009745;28;20030;-42
2022/10/15 03:22:03;;;;;;;169.50;57.95;;;;;;;12.13;100.00;100530.72;5009635;28;20040;-39
2022/10/15 03:24:30;;;;;;;182.25;61.10;;;;;;;12.11;100.00;100527.38;5009407;28;20034;-40
2022/10/15 03:26:55;;;;;;;177.77;59.13;;;;;;;12.07;100.00;100524.25;5009527;28;20032;-42
2022/10/15 03:29:21;;;;;;;176.05;61.45;;;;;;;12.04;100.00;100528.19;5009351;28;20022;-40
2022/10/15 03:31:46;;;;;;;183.32;60.17;;;;;;;11.99;100.00;100525.25;5009916;28;20030;-39
2022/10/15 03:34:11;;;;;;;169.98;57.85;;;;;;;11.94;100.00;100526.88;5009662;28;20030;-39
2022/10/15 03:36:37;;;;;;;176.45;59.38;;;;;;;11.92;100.00;100529.78;5010148;28;20025;-39
2022/10/15 03:39:02;;;;;;;172.05;59.15;;;;;;;11.91;100.00;100527.28;5009207;28;20028;-39
2022/10/15 03:41:27;;;;;;;179.95;61.72;;;;;;;11.88;100.00;100525.81;5010360;28;20022;-38
2022/10/15 03:43:53;;;;;;;169.65;59.75;;;;;;;11.85;100.00;100526.19;5009404;28;20046;-40
2022/10/15 03:46:18;;;;;;;179.00;60.30;;;;;;;11.80;100.00;100528.66;4992309;28;20032;-39
2022/10/15 03:48:48;;;;;;;176.82;59.63;;;;;;;11.77;100.00;100529.88;4991757;28;20068;-39
2022/10/15 03:51:13;;;;;;;173.15;58.15;;;;;;;11.75;100.00;100537.31;5008420;28;20030;-40
2022/10/15 03:53:38;;;;;;;182.70;61.03;;;;;;;11.78;100.00;100536.09;5009362;28;20037;-42
2022/10/15 03:56:04;;;;;;;193.02;64.97;;;;;;;11.83;100.00;100544.41;5009757;28;20436;-41
2022/10/15 03:58:30;;;;;;;194.55;62.17;;;;;;;11.86;100.00;100544.06;5009069;28;20201;-40
2022/10/15 04:00:55;;;;;;;187.55;62.65;;;;;;;11.90;100.00;100550.72;4996313;28;20112;-40
2022/10/15 04:03:20;;;;;;;188.70;63.10;;;;;;;11.91;100.00;100547.00;4991448;28;20366;-39
2022/10/15 04:05:50;;;;;;;186.98;61.30;;;;;;;11.92;100.00;100543.25;5008648;28;20052;-40
2022/10/15 04:08:16;;;;;;;181.13;61.67;;;;;;;11.96;100.00;100543.72;4989243;28;20099;-39
2022/10/15 04:10:41;;;;;;;176.77;61.15;;;;;;;12.00;100.00;100548.47;5010427;28;20033;-39
2022/10/15 04:13:06;;;;;;;170.77;59.13;;;;;;;12.04;100.00;100548.94;5011108;28;20131;-38
2022/10/15 04:15:31;;;;;;;171.45;61.10;;;;;;;12.04;100.00;100547.06;5011256;28;20088;-40
2022/10/15 04:17:57;;;;;;;181.43;56.47;;;;;;;12.08;100.00;100551.03;5011142;28;20125;-39
2022/10/15 04:20:22;;;;;;;173.48;58.40;;;;;;;12.08;100.00;100542.97;5010666;28;20028;-39
2022/10/15 04:22:48;;;;;;;174.20;58.72;;;;;;;12.07;100.00;100541.28;4993378;28;20093;-40
2022/10/15 04:25:13;;;;;;;175.18;59.55;;;;;;;12.12;100.00;100534.47;4993327;28;20038;-39
2022/10/15 04:27:38;;;;;;;170.45;61.90;;;;;;;12.11;100.00;100533.59;5010621;28;20418;-40
2022/10/15 04:30:04;;;;;;;154.10;56.90;;;;;;;12.08;100.00;100531.31;4998100;28;20566;-39
2022/10/15 04:32:30;;;;;;;160.45;57.90;;;;;;;12.10;100.00;100528.44;5004044;28;20029;-40
2022/10/15 04:34:57;;;;;;;161.70;59.33;;;;;;;12.10;100.00;100523.03;4992426;28;20527;-39
2022/10/15 04:37:22;;;;;;;171.88;62.20;;;;;;;12.10;100.00;100523.84;4992619;28;20365;-40
2022/10/15 04:39:47;;;;;;;166.35;59.22;;;;;;;12.08;100.00;100526.78;5010451;28;20029;-40
2022/10/15 04:42:13;;;;;;;168.82;59.50;;;;;;;12.11;100.00;100520.13;5010527;28;20069;-40
2022/10/15 04:44:38;;;;;;;162.10;57.50;;;;;;;12.15;100.00;100528.66;5010461;28;20029;-39
2022/10/15 04:47:03;;;;;;;175.40;61.50;;;;;;;12.19;100.00;100528.06;5011068;28;20026;-40
2022/10/15 04:49:29;;;;;;;165.35;58.33;;;;;;;12.24;100.00;100530.13;5010266;28;20037;-42
2022/10/15 04:51:54;;;;;;;154.35;56.70;;;;;;;12.27;100.00;100524.38;5010179;28;20326;-40
2022/10/15 04:54:19;;;;;;;160.23;59.42;;;;;;;12.30;100.00;100523.97;5010219;28;20520;-38
2022/10/15 04:56:45;;;;;;;165.15;60.58;;;;;;;12.29;100.00;100517.72;5007078;28;20118;-40
2022/10/15 04:59:10;;;;;;;153.20;59.15;;;;;;;12.31;100.00;100522.91;5010483;28;20035;-46
2022/10/15 05:01:35;;;;;;;160.50;61.58;;;;;;;12.29;100.00;100517.72;5010400;28;20128;-40
2022/10/15 05:04:01;;;;;;;166.43;59.75;;;;;;;12.30;100.00;100515.88;5010286;28;20061;-40
2022/10/15 05:06:26;;;;;;;166.55;60.40;;;;;;;12.28;100.00;100512.53;5009577;28;20117;-39
2022/10/15 05:08:53;;;;;;;154.55;60.38;;;;;;;12.30;100.00;100519.38;4978765;28;20539;-40
2022/10/15 05:11:21;;;;;;;171.45;61.55;;;;;;;12.28;100.00;100521.44;4992443;28;20034;-39
2022/10/15 05:13:47;;;;;;;158.80;59.00;;;;;;;12.30;100.00;100519.38;5010420;28;20029;-39
2022/10/15 05:16:15;;;;;;;165.30;57.25;;;;;;;12.32;100.00;100512.94;4992603;28;20042;-39
2022/10/15 05:18:42;;;;;;;160.63;56.67;;;;;;;12.32;100.00;100516.47;5006622;28;20026;-39
2022/10/15 05:21:08;;;;;;;164.83;53.80;;;;;;;12.31;100.00;100504.03;4991927;28;20393;-40
2022/10/15 05:23:33;;;;;;;160.52;55.75;;;;;;;12.35;100.00;100509.84;5009924;28;20037;-40
2022/10/15 05:26:13;;;;;;;164.45;55.15;;;;;;;12.34;100.00;100503.63;4992409;28;20465;-40
2022/10/15 05:28:39;;;;;;;173.77;54.13;;;;;;;12.34;100.00;100505.50;5009293;28;20562;-39
2022/10/15 05:31:06;;;;;;;171.45;54.72;;;;;;;12.35;100.00;100502.59;5009318;28;20080;-38
2022/10/15 05:33:32;;;;;;;176.63;54.88;;;;;;;12.32;100.00;100500.28;5009748;28;20030;-39
2022/10/15 05:36:07;;;;;;;164.15;52.33;;;;;;;12.31;100.00;100493.22;5009855;28;20037;-38
2022/10/15 05:38:32;;;;;;;156.60;51.45;;;;;;;12.31;100.00;100498.63;5008652;28;20045;-38
2022/10/15 05:40:58;;;;;;;152.00;50.55;;;;;;;12.29;100.00;100489.91;5009844;28;20125;-39
2022/10/15 05:43:23;;;;;;;155.98;49.60;;;;;;;12.29;100.00;100492.59;5010203;28;20160;-39
2022/10/15 05:45:53;;;;;;;152.00;49.22;;;;;;;12.31;100.00;100504.03;5010110;28;20378;-39
2022/10/15 05:48:18;;;;;;;150.48;50.17;;;;;;;12.32;100.00;100507.56;4994572;28;20030;-39
2022/10/15 05:50:44;;;;;;;149.07;49.33;;;;;;;12.36;100.00;100504.25;5010397;28;20026;-40
2022/10/15 05:53:09;;;;;;;143.48;47.75;;;;;;;12.35;100.00;100505.31;5009847;28;20018;-40
2022/10/15 05:55:34;;;;;;;145.90;48.42;;;;;;;12.42;100.00;100500.75;5010813;28;20033;-40
2022/10/15 05:58:02;;;;;;;170.88;50.42;;;;;;;12.39;100.00;100503.84;5010990;28;20040;-40
2022/10/15 06:00:27;;;;;;;160.75;52.17;;;;;;;12.40;100.00;100502.84;4993730;28;20042;-40
2022/10/15 06:02:52;;;;;;;152.32;52.40;;;;;;;12.40;100.00;100505.53;5011686;28;20041;-40
2022/10/15 06:05:18;;;;;;;156.27;53.40;;;;;;;12.39;100.00;100501.16;5011675;28;20130;-40
2022/10/15 06:07:43;;;;;;;167.32;52.38;;;;;;;12.38;100.00;100491.41;5011096;28;20133;-40
2022/10/15 06:10:08;;;;;;;153.38;50.60;;;;;;;12.38;100.00;100488.69;5004505;28;20112;-40
2022/10/15 06:12:34;;;;;;;152.88;52.25;;;;;;;12.38;100.00;100487.88;4994388;28;20057;-41
2022/10/15 06:14:59;;;;;;;161.77;51.55;;;;;;;12.37;100.00;100484.31;5011374;28;20093;-40
2022/10/15 06:17:24;;;;;;;157.88;51.53;;;;;;;12.42;100.00;100489.13;5010250;28;20040;-40
2022/10/15 06:19:50;;;;;;;144.55;47.72;;;;;;;12.37;100.00;100492.41;5010748;28;20058;-40
2022/10/15 06:22:15;;;;;;;138.63;47.10;;;;;;;12.35;100.00;100490.94;4998616;28;20053;-39
2022/10/15 06:24:40;;;;;;;137.55;47.03;;;;;;;12.36;100.00;100496.16;4997335;28;20496;-39
2022/10/15 06:27:06;;;;;;;145.57;47.97;;;;;;;12.41;100.00;100493.69;5004678;28;20026;-39
2022/10/15 06:29:31;;;;;;;139.98;49.03;;;;;;;12.38;100.00;100486.00;5011425;28;20058;-39
2022/10/15 06:31:56;;;;;;;136.45;45.65;;;;;;;12.39;100.00;100490.34;5010623;28;20033;-39
2022/10/15 06:34:22;;;;;;;143.75;47.30;;;;;;;12.40;100.00;100486.63;5009595;28;20021;-40
2022/10/15 06:36:47;;;;;;;129.80;48.28;;;;;;;12.43;100.00;100491.63;5011014;28;20481;-39
2022/10/15 06:39:12;;;;;;;137.73;47.35;;;;;;;12.50;100.00;100500.56;5011039;28;20032;-40
2022/10/15 06:41:38;;;;;;;133.10;47.85;;;;;;;12.46;100.00;100496.63;5011254;28;20037;-39
2022/10/15 06:44:03;;;;;;;130.35;47.15;;;;;;;12.45;100.00;100489.56;5011196;28;20485;-39
2022/10/15 06:46:28;;;;;;;135.95;48.65;;;;;;;12.46;100.00;100488.53;5011556;28;20530;-40
2022/10/15 06:48:54;;;;;;;133.10;46.97;;;;;;;12.54;100.00;100486.69;5011282;28;20030;-40
2022/10/15 06:51:20;;;;;;;134.95;47.53;;;;;;;12.58;100.00;100487.91;5008652;28;20044;-40
2022/10/15 06:53:45;;;;;;;130.38;46.42;;;;;;;12.54;100.00;100486.69;4981923;28;20033;-40
2022/10/15 06:56:10;;;;;;;135.82;48.28;;;;;;;12.57;100.00;100489.78;4991452;28;20529;-39
2022/10/15 06:58:36;;;;;;;140.98;48.90;;;;;;;12.60;100.00;100488.56;4974796;28;20220;-39
2022/10/15 07:01:03;;;;;;;134.05;45.92;;;;;;;12.67;100.00;100492.09;4991390;28;20030;-40
2022/10/15 07:03:28;;;;;;;133.82;46.42;;;;;;;12.70;100.00;100491.69;4973765;28;20034;-40
2022/10/15 07:05:54;;;;;;;144.52;49.17;;;;;;;12.66;100.00;100495.81;4991781;28;20074;-39
2022/10/15 07:08:19;;;;;;;155.60;51.03;;;;;;;12.72;100.00;100493.16;4990971;28;20550;-39
2022/10/15 07:10:45;;;;;;;154.55;50.25;;;;;;;12.71;100.00;100487.94;5001893;28;20030;-39
2022/10/15 07:13:11;;;;;;;152.27;51.47;;;;;;;12.74;100.00;100483.00;5005433;28;20030;-40
2022/10/15 07:15:36;;;;;;;170.18;53.78;;;;;;;12.77;100.00;100486.28;5008268;28;20492;-40
2022/10/15 07:18:01;;;;;;;176.48;55.88;;;;;;;12.77;100.00;100478.19;5008397;28;20543;-41
2022/10/15 07:20:29;;;;;;;185.38;55.53;;;;;;;12.75;100.00;100483.81;4976222;28;20037;-40
2022/10/15 07:22:59;;;;;;;195.70;56.42;;;;;;;12.76;100.00;100481.94;5009572;28;20113;-41
2022/10/15 07:25:24;;;;;;;197.57;55.03;;;;;;;12.80;100.00;100469.72;5005258;28;20044;-41
2022/10/15 07:27:50;;;;;;;184.00;52.25;;;;;;;12.79;100.00;100471.56;4999281;28;20021;-42
2022/10/15 07:30:15;;;;;;;196.05;55.90;;;;;;;12.78;100.00;100472.59;4975333;28;20437;-42
2022/10/15 07:32:42;;;;;;;199.15;55.00;;;;;;;12.76;100.00;100463.03;4991168;28;20030;-40
2022/10/15 07:35:07;;;;;;;173.75;51.20;;;;;;;12.76;100.00;100463.88;4991681;28;20023;-40
2022/10/15 07:37:33;;;;;;;177.55;53.30;;;;;;;12.78;100.00;100478.00;5019370;28;20523;-40
2022/10/15 07:39:58;;;;;;;165.25;50.67;;;;;;;12.74;100.00;100477.59;5009023;28;20033;-41
2022/10/15 07:42:24;;;;;;;156.20;48.42;;;;;;;12.79;100.00;100473.44;5009271;28;20437;-40
2022/10/15 07:44:49;;;;;;;146.50;44.55;;;;;;;12.86;100.00;100472.41;5007837;28;20076;-40
2022/10/15 07:47:14;;;;;;;132.25;42.38;;;;;;;12.90;100.00;100460.16;5010823;28;20764;-40
2022/10/15 07:49:40;;;;;;;128.45;43.63;;;;;;;12.88;100.00;100459.53;5011573;28;20167;-40
2022/10/15 07:52:07;;;;;;;107.78;37.17;;;;;;;12.87;100.00;100455.13;5011485;28;20053;-40
2022/10/15 07:54:33;;;;;;;113.90;38.58;;;;;;;12.92;100.00;100441.03;5011458;28;20387;-39
2022/10/15 07:56:58;;;;;;;107.70;36.22;;;;;;;13.00;100.00;100448.09;5010230;28;20025;-40
2022/10/15 07:59:24;;;;;;;108.85;37.33;;;;;;;13.09;100.00;100449.56;5009874;28;20030;-40
2022/10/15 08:01:50;;;;;;;103.53;37.55;;;;;;;13.14;100.00;100444.38;4992311;28;20347;-41
2022/10/15 08:04:16;;;;;;;90.68;34.97;;;;;;;13.15;100.00;100451.44;5009795;28;20026;-40
2022/10/15 08:06:41;;;;;;;95.10;36.47;;;;;;;13.28;100.00;100443.34;5010196;28;20021;-39
2022/10/15 08:09:06;;;;;;;91.72;35.35;;;;;;;13.38;100.00;100440.22;5009658;28;20397;-40
2022/10/15 08:11:32;;;;;;;96.55;34.58;;;;;;;13.57;100.00;100435.81;4993175;28;20026;-39
2022/10/15 08:13:57;;;;;;;97.90;36.78;;;;;;;13.73;100.00;100437.22;4992581;28;20029;-40
2022/10/15 08:16:22;;;;;;;90.18;35.17;;;;;;;13.77;100.00;100433.88;5010331;28;20060;-40
2022/10/15 08:18:48;;;;;;;87.93;36.28;;;;;;;13.73;100.00;100421.81;5010406;28;20038;-39
2022/10/15 08:21:13;;;;;;;85.93;34.97;;;;;;;13.76;100.00;100425.97;5010162;28;20104;-39
2022/10/15 08:23:39;;;;;;;85.97;35.85;;;;;;;13.75;100.00;100427.84;4992352;28;20040;-40
2022/10/15 08:26:04;;;;;;;85.05;36.03;;;;;;;13.80;100.00;100422.63;4992696;28;20026;-40
2022/10/15 08:28:32;;;;;;;96.28;38.20;;;;;;;13.70;100.00;100426.84;5008963;28;20442;-40
2022/10/15 08:30:58;;;;;;;96.07;39.33;;;;;;;13.68;100.00;100421.63;5009567;28;20021;-40
2022/10/15 08:33:24;;;;;;;103.65;39.50;;;;;;;13.72;100.00;100420.19;5009887;28;20030;-42
2022/10/15 08:35:49;;;;;;;93.75;37.17;;;;;;;13.71;100.00;100418.50;5010271;28;20037;-39
2022/10/15 08:38:14;;;;;;;94.25;39.03;;;;;;;13.76;100.00;100412.44;4992434;28;20125;-39
2022/10/15 08:40:41;;;;;;;97.13;38.45;;;;;;;13.78;100.00;100418.47;5009602;28;20026;-38
2022/10/15 08:43:31;;;;;;;97.60;39.83;;;;;;;13.88;100.00;100415.34;4992507;28;20030;-40
2022/10/15 08:45:59;;;;;;;94.18;38.30;;;;;;;13.88;100.00;100420.75;4992398;28;20346;-39
2022/10/15 08:48:31;;;;;;;97.85;39.88;;;;;;;13.77;100.00;100423.06;4992163;28;20030;-40
2022/10/15 08:51:04;;;;;;;102.85;39.92;;;;;;;13.79;100.00;100418.25;4992100;28;20072;-39
2022/10/15 08:53:37;;;;;;;103.47;39.00;;;;;;;13.80;100.00;100406.41;5009578;28;20113;-39
2022/10/15 08:56:11;;;;;;;107.93;40.80;;;;;;;13.84;100.00;100417.63;5012346;28;20026;-39
2022/10/15 08:59:10;;;;;;;110.60;40.80;;;;;;;13.78;100.00;100415.78;4995396;28;20068;-39
2022/10/15 09:01:57;;;;;;;104.75;37.00;;;;;;;13.73;100.00;100407.47;5013315;28;20478;-39
2022/10/15 09:04:45;;;;;;;114.30;41.30;;;;;;;13.58;100.00;100413.13;4995406;28;20057;-39
2022/10/15 09:07:41;;;;;;;111.70;40.45;;;;;;;13.52;100.00;100419.38;5012766;28;20275;-39
2022/10/15 09:10:15;;;;;;;121.70;41.95;;;;;;;13.52;100.00;100420.22;4995317;28;20026;-41
2022/10/15 09:12:52;;;;;;;116.65;42.53;;;;;;;13.53;100.00;100412.94;5013043;28;20038;-40
2022/10/15 09:15:19;;;;;;;114.18;39.38;;;;;;;13.53;100.00;100412.94;4995362;28;20087;-44
2022/10/15 09:17:47;;;;;;;107.78;38.85;;;;;;;13.47;100.00;100413.78;4995337;28;20030;-40
2022/10/15 09:20:33;;;;;;;105.95;35.28;;;;;;;13.52;100.00;100419.38;4995382;28;20026;-40
2022/10/15 09:22:58;;;;;;;96.95;36.78;;;;;;;13.46;100.00;100409.44;4994938;28;20046;-40
2022/10/15 09:25:24;;;;;;;102.38;37.30;;;;;;;13.54;100.00;100417.31;4995229;28;20102;-41
2022/10/15 09:27:51;;;;;;;97.40;34.92;;;;;;;13.58;100.00;100415.81;5012929;28;20048;-41
2022/10/15 09:30:25;;;;;;;99.00;36.75;;;;;;;13.68;100.00;100413.50;4994624;28;20470;-41
2022/10/15 09:32:55;;;;;;;94.70;35.10;;;;;;;13.83;100.00;100411.38;5012717;28;20037;-41
2022/10/15 09:35:26;;;;;;;109.18;38.25;;;;;;;13.90;100.00;100410.53;5012530;28;20026;-40
2022/10/15 09:38:13;;;;;;;109.65;38.25;;;;;;;13.93;100.00;100408.25;5012348;28;20018;-41
2022/10/15 09:40:45;;;;;;;102.03;37.72;;;;;;;13.88;100.00;100404.53;4994741;28;20371;-42
2022/10/15 09:43:11;;;;;;;109.63;41.25;;;;;;;13.92;100.00;100405.72;5012195;28;20057;-42
2022/10/15 09:45:37;;;;;;;107.40;41.10;;;;;;;13.94;100.00;100400.94;5010517;28;20111;-40
2022/10/15 09:48:11;;;;;;;109.97;41.05;;;;;;;13.93;100.00;100401.97;4994062;28;20127;-41
2022/10/15 09:50:43;;;;;;;106.18;41.40;;;;;;;13.79;100.00;100396.63;5010130;28;20839;-41
2022/10/15 09:53:20;;;;;;;111.20;43.30;;;;;;;13.84;100.00;100401.38;5009963;28;20040;-41
2022/10/15 09:56:02;;;;;;;109.88;42.10;;;;;;;13.79;100.00;100393.91;4994098;28;20065;-41
2022/10/15 09:58:34;;;;;;;93.70;38.22;;;;;;;13.74;100.00;100385.59;4977472;28;20026;-42
2022/10/15 10:01:01;;;;;;;107.72;40.97;;;;;;;13.80;100.00;100394.78;5009229;28;20064;-43
2022/10/15 10:03:28;;;;;;;102.80;39.38;;;;;;;13.78;100.00;100394.16;5011734;28;20030;-42
2022/10/15 10:06:04;;;;;;;96.20;36.13;;;;;;;13.76;100.00;100394.34;5011315;28;20034;-41
2022/10/15 10:08:36;;;;;;;99.03;38.05;;;;;;;13.71;100.00;100396.84;4993464;28;20497;-40
2022/10/15 10:11:04;;;;;;;100.00;37.25;;;;;;;13.74;100.00;100395.59;5011904;28;20113;-42
2022/10/15 10:13:39;;;;;;;83.05;33.58;;;;;;;13.78;100.00;100397.69;5010695;28;20112;-41
2022/10/15 10:16:08;;;;;;;89.75;33.97;;;;;;;13.84;100.00;100401.38;4977760;28;20155;-41
2022/10/15 10:18:36;;;;;;;84.75;34.13;;;;;;;13.77;100.00;100395.16;5011648;28;20060;-42
2022/10/15 10:21:04;;;;;;;85.70;34.03;;;;;;;13.78;100.00;100397.69;4993212;28;20029;-42
2022/10/15 10:23:38;;;;;;;85.65;34.58;;;;;;;13.77;100.00;100403.28;4995400;28;20034;-41
2022/10/15 10:26:06;;;;;;;77.57;30.75;;;;;;;13.80;100.00;100395.59;5011911;28;20037;-45
2022/10/15 10:28:48;;;;;;;68.25;29.17;;;;;;;13.69;100.00;100393.56;4993953;28;20105;-43
2022/10/15 10:31:15;;;;;;;67.38;28.77;;;;;;;13.67;100.00;100406.47;5011584;28;20338;-42
2022/10/15 10:33:40;;;;;;;73.78;29.13;;;;;;;13.66;100.00;100395.84;4993774;28;20561;-42
2022/10/15 10:36:07;;;;;;;69.95;27.48;;;;;;;13.65;100.00;100394.19;5011573;28;20109;-45
2022/10/15 10:38:39;;;;;;;60.50;24.27;;;;;;;13.64;100.00;100406.03;4994227;28;20026;-45
2022/10/15 10:41:09;;;;;;;62.60;25.48;;;;;;;13.64;100.00;100406.88;5009811;28;20026;-42
2022/10/15 10:43:39;;;;;;;52.80;21.98;;;;;;;13.62;100.00;100406.25;5011768;28;20036;-41
2022/10/15 10:46:14;;;;;;;55.88;21.35;;;;;;;13.63;100.00;100405.22;5012213;28;20652;-41
2022/10/15 10:48:42;;;;;;;47.08;19.88;;;;;;;13.56;100.00;100399.84;5011788;28;20473;-41
2022/10/15 10:51:23;;;;;;;53.47;19.60;;;;;;;13.54;100.00;100401.09;4993525;28;20117;-41
2022/10/15 10:54:04;;;;;;;55.28;20.25;;;;;;;13.54;100.00;100393.81;5011265;28;20036;-41
2022/10/15 10:56:36;;;;;;;49.33;19.95;;;;;;;13.59;100.00;100396.69;5011965;28;20179;-42
2022/10/15 10:59:43;;;;;;;50.60;20.80;;;;;;;13.54;100.00;100398.38;5012234;28;20025;-41
2022/10/15 11:02:10;;;;;;;50.05;21.38;;;;;;;13.61;100.00;100388.38;4951256;28;20035;-41
2022/10/15 11:04:38;;;;;;;48.75;19.30;;;;;;;13.58;100.00;100392.31;4950488;28;20161;-42